sensor_id;sensor_type;location;lat;lon;timestamp;temperature;humidity
6210;DHT22;3138;52.550;13.148;2023-02-28T00:04:31;-0.80;1.00
6210;DHT22;3138;52.550;13.148;2023-02-28T00:07:06;-0.90;20.90
6210;DHT22;3138;52.550;13.148;2023-02-28T00:10:07;-0.90;56.50
6210;DHT22;3138;52.550;13.148;2023-02-28T00:13:40;-1.00;97.70
6210;DHT22;3138;52.550;13.148;2023-02-28T00:16:30;-1.00;99.90
6210;DHT22;3138;52.550;13.148;2023-02-28T00:19:07;-1.10;99.90
6210;DHT22;3138;52.550;13.148;2023-02-28T00:24:50;-1.10;99.90
6210;DHT22;3138;52.550;13.148;2023-02-28T00:27:31;-1.10;99.90
6210;DHT22;3138;52.550;13.148;2023-02-28T00:30:58;-1.20;99.90
6210;DHT22;3138;52.550;13.148;2023-02-28T00:33:35;-1.10;99.90
6210;DHT22;3138;52.550;13.148;2023-02-28T00:36:16;-1.10;99.90
6210;DHT22;3138;52.550;13.148;2023-02-28T00:38:50;-1.20;99.90
6210;DHT22;3138;52.550;13.148;2023-02-28T00:41:39;-1.30;99.90
6210;DHT22;3138;52.550;13.148;2023-02-28T00:44:37;-1.30;99.90
6210;DHT22;3138;52.550;13.148;2023-02-28T00:47:23;-1.20;1.00
6210;DHT22;3138;52.550;13.148;2023-02-28T00:53:09;-1.10;1.00
6210;DHT22;3138;52.550;13.148;2023-02-28T00:55:47;-1.20;1.00
6210;DHT22;3138;52.550;13.148;2023-02-28T00:58:38;-1.20;1.00
6210;DHT22;3138;52.550;13.148;2023-02-28T01:02:27;-1.20;1.00
6210;DHT22;3138;52.550;13.148;2023-02-28T01:04:24;-1.20;1.00
6210;DHT22;3138;52.550;13.148;2023-02-28T01:06:52;-1.20;1.00
6210;DHT22;3138;52.550;13.148;2023-02-28T01:09:19;-1.30;1.00
6210;DHT22;3138;52.550;13.148;2023-02-28T01:12:08;-1.30;1.00
6210;DHT22;3138;52.550;13.148;2023-02-28T01:14:43;-1.30;1.00
6210;DHT22;3138;52.550;13.148;2023-02-28T01:17:26;-1.40;1.00
6210;DHT22;3138;52.550;13.148;2023-02-28T01:19:56;-1.50;1.00
6210;DHT22;3138;52.550;13.148;2023-02-28T01:22:32;-1.50;1.00
6210;DHT22;3138;52.550;13.148;2023-02-28T01:25:09;-1.50;1.00
6210;DHT22;3138;52.550;13.148;2023-02-28T01:27:40;-1.70;1.00
6210;DHT22;3138;52.550;13.148;2023-02-28T01:30:09;-1.80;1.00
6210;DHT22;3138;52.550;13.148;2023-02-28T01:32:36;-1.80;1.00
6210;DHT22;3138;52.550;13.148;2023-02-28T01:35:06;-1.80;1.00
6210;DHT22;3138;52.550;13.148;2023-02-28T01:37:51;-1.90;1.00
6210;DHT22;3138;52.550;13.148;2023-02-28T01:40:20;-2.10;1.00
6210;DHT22;3138;52.550;13.148;2023-02-28T01:43:00;-2.10;1.00
6210;DHT22;3138;52.550;13.148;2023-02-28T01:45:34;-2.10;1.00
6210;DHT22;3138;52.550;13.148;2023-02-28T01:48:07;-2.30;1.00
6210;DHT22;3138;52.550;13.148;2023-02-28T01:50:37;-2.30;1.00
6210;DHT22;3138;52.550;13.148;2023-02-28T01:53:24;-2.40;1.00
6210;DHT22;3138;52.550;13.148;2023-02-28T01:56:36;-2.40;11.00
6210;DHT22;3138;52.550;13.148;2023-02-28T01:59:10;-2.40;99.90
6210;DHT22;3138;52.550;13.148;2023-02-28T02:01:41;-2.50;99.90
6210;DHT22;3138;52.550;13.148;2023-02-28T02:04:09;-2.50;99.90
6210;DHT22;3138;52.550;13.148;2023-02-28T02:06:43;-2.60;99.90
6210;DHT22;3138;52.550;13.148;2023-02-28T02:09:10;-2.70;99.90
6210;DHT22;3138;52.550;13.148;2023-02-28T02:12:06;-2.80;99.90
6210;DHT22;3138;52.550;13.148;2023-02-28T02:14:58;-2.90;99.90
6210;DHT22;3138;52.550;13.148;2023-02-28T02:17:48;-2.80;99.90
6210;DHT22;3138;52.550;13.148;2023-02-28T02:20:51;-2.80;99.90
6210;DHT22;3138;52.550;13.148;2023-02-28T02:30:16;-3.10;99.90
6210;DHT22;3138;52.550;13.148;2023-02-28T02:35:35;-3.10;99.90
6210;DHT22;3138;52.550;13.148;2023-02-28T02:38:09;-3.20;1.00
6210;DHT22;3138;52.550;13.148;2023-02-28T02:40:43;-3.30;1.00
6210;DHT22;3138;52.550;13.148;2023-02-28T02:43:15;-3.40;1.00
6210;DHT22;3138;52.550;13.148;2023-02-28T02:45:46;-3.50;1.00
6210;DHT22;3138;52.550;13.148;2023-02-28T02:48:18;-3.40;1.00
6210;DHT22;3138;52.550;13.148;2023-02-28T02:50:51;-3.40;1.00
6210;DHT22;3138;52.550;13.148;2023-02-28T02:53:28;-3.40;1.00
6210;DHT22;3138;52.550;13.148;2023-02-28T02:55:58;-3.50;1.00
6210;DHT22;3138;52.550;13.148;2023-02-28T02:58:50;-3.50;1.00
6210;DHT22;3138;52.550;13.148;2023-02-28T03:01:21;-3.50;1.00
6210;DHT22;3138;52.550;13.148;2023-02-28T03:06:52;-3.70;1.00
6210;DHT22;3138;52.550;13.148;2023-02-28T03:09:37;-3.70;1.00
6210;DHT22;3138;52.550;13.148;2023-02-28T03:12:10;-3.80;1.00
6210;DHT22;3138;52.550;13.148;2023-02-28T03:15:08;-3.90;1.00
6210;DHT22;3138;52.550;13.148;2023-02-28T03:18:09;-3.80;39.40
6210;DHT22;3138;52.550;13.148;2023-02-28T03:20:46;-3.70;99.90
6210;DHT22;3138;52.550;13.148;2023-02-28T03:26:36;-4.00;99.90
6210;DHT22;3138;52.550;13.148;2023-02-28T03:29:17;-3.90;99.90
6210;DHT22;3138;52.550;13.148;2023-02-28T03:31:59;-4.00;99.90
6210;DHT22;3138;52.550;13.148;2023-02-28T03:34:37;-4.00;1.00
6210;DHT22;3138;52.550;13.148;2023-02-28T03:37:17;-3.90;1.00
6210;DHT22;3138;52.550;13.148;2023-02-28T03:40:13;-4.00;1.00
6210;DHT22;3138;52.550;13.148;2023-02-28T03:43:01;-4.00;1.00
6210;DHT22;3138;52.550;13.148;2023-02-28T03:45:41;-4.10;1.00
6210;DHT22;3138;52.550;13.148;2023-02-28T03:48:19;-4.10;1.00
6210;DHT22;3138;52.550;13.148;2023-02-28T03:50:49;-4.00;33.90
6210;DHT22;3138;52.550;13.148;2023-02-28T03:53:22;-4.00;8.70
6210;DHT22;3138;52.550;13.148;2023-02-28T03:55:59;-4.10;74.80
6210;DHT22;3138;52.550;13.148;2023-02-28T03:58:39;-3.90;99.90
6210;DHT22;3138;52.550;13.148;2023-02-28T04:01:12;-4.10;58.00
6210;DHT22;3138;52.550;13.148;2023-02-28T04:03:49;-4.20;65.00
6210;DHT22;3138;52.550;13.148;2023-02-28T04:07:04;-4.20;94.80
6210;DHT22;3138;52.550;13.148;2023-02-28T04:09:45;-4.30;72.10
6210;DHT22;3138;52.550;13.148;2023-02-28T04:12:13;-4.30;74.40
6210;DHT22;3138;52.550;13.148;2023-02-28T04:14:41;-4.40;1.00
6210;DHT22;3138;52.550;13.148;2023-02-28T04:17:08;-4.40;1.00
6210;DHT22;3138;52.550;13.148;2023-02-28T04:19:35;-4.40;1.00
6210;DHT22;3138;52.550;13.148;2023-02-28T04:22:02;-4.40;1.00
6210;DHT22;3138;52.550;13.148;2023-02-28T04:24:31;-4.50;1.00
6210;DHT22;3138;52.550;13.148;2023-02-28T04:27:03;-4.70;1.00
6210;DHT22;3138;52.550;13.148;2023-02-28T04:29:44;-4.60;1.00
6210;DHT22;3138;52.550;13.148;2023-02-28T04:32:11;-4.50;1.00
6210;DHT22;3138;52.550;13.148;2023-02-28T04:34:44;-4.60;1.00
6210;DHT22;3138;52.550;13.148;2023-02-28T04:37:20;-4.70;1.00
6210;DHT22;3138;52.550;13.148;2023-02-28T04:40:04;-4.60;1.00
6210;DHT22;3138;52.550;13.148;2023-02-28T04:42:34;-4.60;1.00
6210;DHT22;3138;52.550;13.148;2023-02-28T04:45:10;-4.70;18.90
6210;DHT22;3138;52.550;13.148;2023-02-28T04:47:45;-4.70;74.20
6210;DHT22;3138;52.550;13.148;2023-02-28T04:50:24;-4.70;55.20
6210;DHT22;3138;52.550;13.148;2023-02-28T04:52:50;-4.70;58.30
6210;DHT22;3138;52.550;13.148;2023-02-28T04:55:22;-5.00;1.00
6210;DHT22;3138;52.550;13.148;2023-02-28T04:57:52;-5.00;1.00
6210;DHT22;3138;52.550;13.148;2023-02-28T05:00:20;-5.00;1.00
6210;DHT22;3138;52.550;13.148;2023-02-28T05:02:57;-5.00;1.00
6210;DHT22;3138;52.550;13.148;2023-02-28T05:05:36;-5.10;1.00
6210;DHT22;3138;52.550;13.148;2023-02-28T05:08:03;-5.10;1.00
6210;DHT22;3138;52.550;13.148;2023-02-28T05:10:35;-5.10;1.00
6210;DHT22;3138;52.550;13.148;2023-02-28T05:13:11;-5.10;1.00
6210;DHT22;3138;52.550;13.148;2023-02-28T05:15:59;-5.30;99.90
6210;DHT22;3138;52.550;13.148;2023-02-28T05:18:26;-5.20;1.00
6210;DHT22;3138;52.550;13.148;2023-02-28T05:20:53;-5.20;1.00
6210;DHT22;3138;52.550;13.148;2023-02-28T05:23:22;-5.20;1.00
6210;DHT22;3138;52.550;13.148;2023-02-28T05:25:49;-5.20;99.90
6210;DHT22;3138;52.550;13.148;2023-02-28T05:28:17;-5.30;99.90
6210;DHT22;3138;52.550;13.148;2023-02-28T05:30:44;-5.40;99.90
6210;DHT22;3138;52.550;13.148;2023-02-28T05:33:13;-5.40;67.60
6210;DHT22;3138;52.550;13.148;2023-02-28T05:35:41;-5.50;1.00
6210;DHT22;3138;52.550;13.148;2023-02-28T05:38:09;-5.40;1.00
6210;DHT22;3138;52.550;13.148;2023-02-28T05:40:38;-5.50;1.00
6210;DHT22;3138;52.550;13.148;2023-02-28T05:43:05;-5.60;1.00
6210;DHT22;3138;52.550;13.148;2023-02-28T05:45:34;-5.70;1.00
6210;DHT22;3138;52.550;13.148;2023-02-28T05:48:02;-5.60;1.00
6210;DHT22;3138;52.550;13.148;2023-02-28T05:50:33;-5.50;98.00
6210;DHT22;3138;52.550;13.148;2023-02-28T05:53:05;-5.40;99.90
6210;DHT22;3138;52.550;13.148;2023-02-28T05:55:52;-5.50;99.90
6210;DHT22;3138;52.550;13.148;2023-02-28T06:01:59;-5.60;99.90
6210;DHT22;3138;52.550;13.148;2023-02-28T06:04:38;-5.60;99.90
6210;DHT22;3138;52.550;13.148;2023-02-28T06:07:23;-5.70;99.90
6210;DHT22;3138;52.550;13.148;2023-02-28T06:09:53;-5.70;99.90
6210;DHT22;3138;52.550;13.148;2023-02-28T06:12:27;-5.60;99.90
6210;DHT22;3138;52.550;13.148;2023-02-28T06:17:58;-5.40;1.00
6210;DHT22;3138;52.550;13.148;2023-02-28T06:20:28;-5.30;1.00
6210;DHT22;3138;52.550;13.148;2023-02-28T06:23:35;-5.20;1.00
6210;DHT22;3138;52.550;13.148;2023-02-28T06:26:44;-5.20;1.00
6210;DHT22;3138;52.550;13.148;2023-02-28T06:29:25;-5.10;1.00
6210;DHT22;3138;52.550;13.148;2023-02-28T06:32:09;-5.20;1.00
6210;DHT22;3138;52.550;13.148;2023-02-28T06:34:36;-5.10;1.00
6210;DHT22;3138;52.550;13.148;2023-02-28T06:37:03;-5.00;1.00
6210;DHT22;3138;52.550;13.148;2023-02-28T06:39:31;-4.90;1.00
6210;DHT22;3138;52.550;13.148;2023-02-28T06:41:58;-4.80;1.00
6210;DHT22;3138;52.550;13.148;2023-02-28T06:44:25;-4.70;1.00
6210;DHT22;3138;52.550;13.148;2023-02-28T06:46:52;-4.80;1.00
6210;DHT22;3138;52.550;13.148;2023-02-28T06:49:19;-4.70;1.00
6210;DHT22;3138;52.550;13.148;2023-02-28T06:51:46;-4.50;1.00
6210;DHT22;3138;52.550;13.148;2023-02-28T06:54:13;-4.30;1.00
6210;DHT22;3138;52.550;13.148;2023-02-28T06:56:42;-4.30;1.00
6210;DHT22;3138;52.550;13.148;2023-02-28T06:59:09;-4.20;1.00
6210;DHT22;3138;52.550;13.148;2023-02-28T07:01:36;-4.10;1.00
6210;DHT22;3138;52.550;13.148;2023-02-28T07:04:05;-3.80;1.00
6210;DHT22;3138;52.550;13.148;2023-02-28T07:06:32;-3.70;1.00
6210;DHT22;3138;52.550;13.148;2023-02-28T07:08:59;-3.60;1.00
6210;DHT22;3138;52.550;13.148;2023-02-28T07:11:27;-3.30;1.00
6210;DHT22;3138;52.550;13.148;2023-02-28T07:13:56;-3.00;1.00
6210;DHT22;3138;52.550;13.148;2023-02-28T07:16:24;-2.70;1.00
6210;DHT22;3138;52.550;13.148;2023-02-28T07:18:52;-2.50;1.00
6210;DHT22;3138;52.550;13.148;2023-02-28T07:21:19;-2.30;99.90
6210;DHT22;3138;52.550;13.148;2023-02-28T07:23:46;-2.10;99.90
6210;DHT22;3138;52.550;13.148;2023-02-28T07:26:14;-2.00;56.50
6210;DHT22;3138;52.550;13.148;2023-02-28T07:28:42;-1.80;1.00
6210;DHT22;3138;52.550;13.148;2023-02-28T07:31:11;-1.70;1.00
6210;DHT22;3138;52.550;13.148;2023-02-28T07:33:39;-1.50;1.00
6210;DHT22;3138;52.550;13.148;2023-02-28T07:36:09;-1.40;1.00
6210;DHT22;3138;52.550;13.148;2023-02-28T07:38:39;-1.20;99.90
6210;DHT22;3138;52.550;13.148;2023-02-28T07:41:06;-1.10;99.90
6210;DHT22;3138;52.550;13.148;2023-02-28T07:43:34;-0.90;99.90
6210;DHT22;3138;52.550;13.148;2023-02-28T07:46:03;-0.70;99.90
6210;DHT22;3138;52.550;13.148;2023-02-28T07:48:32;-0.60;10.80
6210;DHT22;3138;52.550;13.148;2023-02-28T07:50:59;-0.50;1.00
6210;DHT22;3138;52.550;13.148;2023-02-28T07:53:27;-0.30;1.00
6210;DHT22;3138;52.550;13.148;2023-02-28T07:55:55;-0.20;1.00
6210;DHT22;3138;52.550;13.148;2023-02-28T07:58:23;0.00;1.00
6210;DHT22;3138;52.550;13.148;2023-02-28T08:00:50;0.10;1.00
6210;DHT22;3138;52.550;13.148;2023-02-28T08:03:17;0.20;99.90
6210;DHT22;3138;52.550;13.148;2023-02-28T08:05:46;0.30;99.90
6210;DHT22;3138;52.550;13.148;2023-02-28T08:08:14;0.50;99.90
6210;DHT22;3138;52.550;13.148;2023-02-28T08:10:41;0.60;99.90
6210;DHT22;3138;52.550;13.148;2023-02-28T08:13:08;0.80;96.30
6210;DHT22;3138;52.550;13.148;2023-02-28T08:15:35;0.90;76.10
6210;DHT22;3138;52.550;13.148;2023-02-28T08:18:03;1.00;27.80
6210;DHT22;3138;52.550;13.148;2023-02-28T08:20:30;1.20;1.00
6210;DHT22;3138;52.550;13.148;2023-02-28T08:22:58;1.40;1.00
6210;DHT22;3138;52.550;13.148;2023-02-28T08:25:25;1.50;1.00
6210;DHT22;3138;52.550;13.148;2023-02-28T08:27:52;1.70;1.00
6210;DHT22;3138;52.550;13.148;2023-02-28T08:30:19;1.80;1.00
6210;DHT22;3138;52.550;13.148;2023-02-28T08:32:46;2.00;1.00
6210;DHT22;3138;52.550;13.148;2023-02-28T08:35:13;2.20;1.00
6210;DHT22;3138;52.550;13.148;2023-02-28T08:37:40;2.30;99.90
6210;DHT22;3138;52.550;13.148;2023-02-28T08:40:10;2.40;99.90
6210;DHT22;3138;52.550;13.148;2023-02-28T08:42:39;2.40;99.90
6210;DHT22;3138;52.550;13.148;2023-02-28T08:45:06;2.50;99.90
6210;DHT22;3138;52.550;13.148;2023-02-28T08:47:36;2.70;99.90
6210;DHT22;3138;52.550;13.148;2023-02-28T08:50:05;2.80;92.20
6210;DHT22;3138;52.550;13.148;2023-02-28T08:52:32;2.90;17.40
6210;DHT22;3138;52.550;13.148;2023-02-28T08:54:59;3.10;1.00
6210;DHT22;3138;52.550;13.148;2023-02-28T08:57:27;3.10;1.00
6210;DHT22;3138;52.550;13.148;2023-02-28T08:59:54;3.20;1.00
6210;DHT22;3138;52.550;13.148;2023-02-28T09:02:21;3.20;1.00
6210;DHT22;3138;52.550;13.148;2023-02-28T09:04:48;3.40;1.00
6210;DHT22;3138;52.550;13.148;2023-02-28T09:07:15;3.30;99.90
6210;DHT22;3138;52.550;13.148;2023-02-28T09:09:43;3.30;99.90
6210;DHT22;3138;52.550;13.148;2023-02-28T09:12:22;3.40;99.90
6210;DHT22;3138;52.550;13.148;2023-02-28T09:14:51;3.50;99.90
6210;DHT22;3138;52.550;13.148;2023-02-28T09:17:19;3.50;99.90
6210;DHT22;3138;52.550;13.148;2023-02-28T09:19:48;3.50;99.90
6210;DHT22;3138;52.550;13.148;2023-02-28T09:22:18;3.60;99.90
6210;DHT22;3138;52.550;13.148;2023-02-28T09:24:45;3.60;99.90
6210;DHT22;3138;52.550;13.148;2023-02-28T09:27:12;3.80;99.90
6210;DHT22;3138;52.550;13.148;2023-02-28T09:29:39;4.00;99.90
6210;DHT22;3138;52.550;13.148;2023-02-28T09:32:11;4.10;99.90
6210;DHT22;3138;52.550;13.148;2023-02-28T09:34:38;4.20;99.90
6210;DHT22;3138;52.550;13.148;2023-02-28T09:37:05;4.30;99.90
6210;DHT22;3138;52.550;13.148;2023-02-28T09:39:35;4.20;99.90
6210;DHT22;3138;52.550;13.148;2023-02-28T09:42:05;4.20;99.50
6210;DHT22;3138;52.550;13.148;2023-02-28T09:44:38;4.10;73.50
6210;DHT22;3138;52.550;13.148;2023-02-28T09:47:13;4.10;53.40
6210;DHT22;3138;52.550;13.148;2023-02-28T09:49:46;4.10;38.40
6210;DHT22;3138;52.550;13.148;2023-02-28T09:52:17;4.30;37.20
6210;DHT22;3138;52.550;13.148;2023-02-28T09:54:45;4.40;23.90
6210;DHT22;3138;52.550;13.148;2023-02-28T09:57:19;4.20;9.50
6210;DHT22;3138;52.550;13.148;2023-02-28T10:00:04;4.40;3.40
6210;DHT22;3138;52.550;13.148;2023-02-28T10:02:53;4.40;1.00
6210;DHT22;3138;52.550;13.148;2023-02-28T10:05:26;4.40;1.00
6210;DHT22;3138;52.550;13.148;2023-02-28T10:08:03;4.30;1.00
6210;DHT22;3138;52.550;13.148;2023-02-28T10:10:37;4.50;1.00
6210;DHT22;3138;52.550;13.148;2023-02-28T10:13:15;4.50;1.00
6210;DHT22;3138;52.550;13.148;2023-02-28T10:15:49;4.70;1.00
6210;DHT22;3138;52.550;13.148;2023-02-28T10:18:24;4.60;1.00
6210;DHT22;3138;52.550;13.148;2023-02-28T10:20:53;4.70;1.00
6210;DHT22;3138;52.550;13.148;2023-02-28T10:23:24;4.80;1.00
6210;DHT22;3138;52.550;13.148;2023-02-28T10:25:57;4.80;1.00
6210;DHT22;3138;52.550;13.148;2023-02-28T10:28:29;5.00;1.00
6210;DHT22;3138;52.550;13.148;2023-02-28T10:30:58;4.80;1.00
6210;DHT22;3138;52.550;13.148;2023-02-28T10:33:30;4.80;1.00
6210;DHT22;3138;52.550;13.148;2023-02-28T10:36:14;4.80;1.00
6210;DHT22;3138;52.550;13.148;2023-02-28T10:38:49;4.80;1.00
6210;DHT22;3138;52.550;13.148;2023-02-28T10:41:27;4.90;1.00
6210;DHT22;3138;52.550;13.148;2023-02-28T10:44:13;4.60;1.00
6210;DHT22;3138;52.550;13.148;2023-02-28T10:46:43;4.90;1.00
6210;DHT22;3138;52.550;13.148;2023-02-28T10:49:19;4.90;1.00
6210;DHT22;3138;52.550;13.148;2023-02-28T10:51:50;4.90;1.00
6210;DHT22;3138;52.550;13.148;2023-02-28T10:54:20;5.10;1.00
6210;DHT22;3138;52.550;13.148;2023-02-28T10:57:08;5.10;1.00
6210;DHT22;3138;52.550;13.148;2023-02-28T10:59:35;5.20;1.00
6210;DHT22;3138;52.550;13.148;2023-02-28T11:02:31;5.00;1.00
6210;DHT22;3138;52.550;13.148;2023-02-28T11:05:00;5.00;1.00
6210;DHT22;3138;52.550;13.148;2023-02-28T11:07:29;5.10;1.00
6210;DHT22;3138;52.550;13.148;2023-02-28T11:09:58;5.10;1.00
6210;DHT22;3138;52.550;13.148;2023-02-28T11:12:28;4.90;1.00
6210;DHT22;3138;52.550;13.148;2023-02-28T11:14:58;5.00;1.00
6210;DHT22;3138;52.550;13.148;2023-02-28T11:17:30;5.20;1.00
6210;DHT22;3138;52.550;13.148;2023-02-28T11:20:02;5.00;1.00
6210;DHT22;3138;52.550;13.148;2023-02-28T11:22:32;5.20;1.00
6210;DHT22;3138;52.550;13.148;2023-02-28T11:25:06;5.30;1.00
6210;DHT22;3138;52.550;13.148;2023-02-28T11:27:50;5.20;1.00
6210;DHT22;3138;52.550;13.148;2023-02-28T11:30:30;5.20;1.00
6210;DHT22;3138;52.550;13.148;2023-02-28T11:32:57;5.40;1.00
6210;DHT22;3138;52.550;13.148;2023-02-28T11:35:31;5.40;1.00
6210;DHT22;3138;52.550;13.148;2023-02-28T11:38:00;5.40;1.00
6210;DHT22;3138;52.550;13.148;2023-02-28T11:40:37;5.40;1.00
6210;DHT22;3138;52.550;13.148;2023-02-28T11:43:19;5.50;1.00
6210;DHT22;3138;52.550;13.148;2023-02-28T11:46:00;5.50;1.00
6210;DHT22;3138;52.550;13.148;2023-02-28T11:48:33;5.30;1.00
6210;DHT22;3138;52.550;13.148;2023-02-28T11:51:14;5.40;1.00
6210;DHT22;3138;52.550;13.148;2023-02-28T11:54:06;5.40;1.00
6210;DHT22;3138;52.550;13.148;2023-02-28T11:56:40;5.30;1.00
6210;DHT22;3138;52.550;13.148;2023-02-28T11:59:26;5.40;1.00
6210;DHT22;3138;52.550;13.148;2023-02-28T12:02:20;5.40;1.00
6210;DHT22;3138;52.550;13.148;2023-02-28T12:04:55;5.30;1.00
6210;DHT22;3138;52.550;13.148;2023-02-28T12:07:31;5.30;1.00
6210;DHT22;3138;52.550;13.148;2023-02-28T12:10:07;5.50;1.00
6210;DHT22;3138;52.550;13.148;2023-02-28T12:12:50;5.40;1.00
6210;DHT22;3138;52.550;13.148;2023-02-28T12:15:57;5.40;1.00
6210;DHT22;3138;52.550;13.148;2023-02-28T12:18:50;5.30;1.00
6210;DHT22;3138;52.550;13.148;2023-02-28T12:24:44;5.30;1.00
6210;DHT22;3138;52.550;13.148;2023-02-28T12:27:28;5.50;1.00
6210;DHT22;3138;52.550;13.148;2023-02-28T12:30:03;5.70;1.00
6210;DHT22;3138;52.550;13.148;2023-02-28T12:32:38;5.80;1.00
6210;DHT22;3138;52.550;13.148;2023-02-28T12:35:16;5.60;1.00
6210;DHT22;3138;52.550;13.148;2023-02-28T12:38:01;5.80;1.00
6210;DHT22;3138;52.550;13.148;2023-02-28T12:40:41;5.50;1.00
6210;DHT22;3138;52.550;13.148;2023-02-28T12:43:15;5.60;1.00
6210;DHT22;3138;52.550;13.148;2023-02-28T12:45:52;5.70;1.00
6210;DHT22;3138;52.550;13.148;2023-02-28T12:48:31;5.50;1.00
6210;DHT22;3138;52.550;13.148;2023-02-28T12:51:16;5.40;1.00
6210;DHT22;3138;52.550;13.148;2023-02-28T12:54:04;5.60;1.00
6210;DHT22;3138;52.550;13.148;2023-02-28T12:56:44;5.70;1.00
6210;DHT22;3138;52.550;13.148;2023-02-28T12:59:18;5.70;1.00
6210;DHT22;3138;52.550;13.148;2023-02-28T13:02:09;5.70;1.00
6210;DHT22;3138;52.550;13.148;2023-02-28T13:08:21;5.50;1.00
6210;DHT22;3138;52.550;13.148;2023-02-28T13:10:54;5.50;1.00
6210;DHT22;3138;52.550;13.148;2023-02-28T13:13:24;5.40;1.00
6210;DHT22;3138;52.550;13.148;2023-02-28T13:16:02;5.50;1.00
6210;DHT22;3138;52.550;13.148;2023-02-28T13:18:35;5.50;1.00
6210;DHT22;3138;52.550;13.148;2023-02-28T13:21:04;5.60;1.00
6210;DHT22;3138;52.550;13.148;2023-02-28T13:23:55;5.60;1.00
6210;DHT22;3138;52.550;13.148;2023-02-28T13:29:35;5.60;1.00
6210;DHT22;3138;52.550;13.148;2023-02-28T13:32:32;5.60;1.00
6210;DHT22;3138;52.550;13.148;2023-02-28T13:35:15;5.60;1.00
6210;DHT22;3138;52.550;13.148;2023-02-28T13:38:24;5.60;1.00
6210;DHT22;3138;52.550;13.148;2023-02-28T13:40:51;5.50;1.00
6210;DHT22;3138;52.550;13.148;2023-02-28T13:43:19;5.50;1.00
6210;DHT22;3138;52.550;13.148;2023-02-28T13:46:11;5.50;1.00
6210;DHT22;3138;52.550;13.148;2023-02-28T13:48:41;5.30;1.00
6210;DHT22;3138;52.550;13.148;2023-02-28T13:51:40;5.50;1.00
6210;DHT22;3138;52.550;13.148;2023-02-28T13:54:19;5.40;1.00
6210;DHT22;3138;52.550;13.148;2023-02-28T13:57:04;5.50;1.00
6210;DHT22;3138;52.550;13.148;2023-02-28T13:59:46;5.60;1.00
6210;DHT22;3138;52.550;13.148;2023-02-28T14:02:45;5.70;1.00
6210;DHT22;3138;52.550;13.148;2023-02-28T14:05:15;5.70;1.00
6210;DHT22;3138;52.550;13.148;2023-02-28T14:07:46;5.70;1.00
6210;DHT22;3138;52.550;13.148;2023-02-28T14:10:25;5.50;1.00
6210;DHT22;3138;52.550;13.148;2023-02-28T14:13:00;5.50;1.00
6210;DHT22;3138;52.550;13.148;2023-02-28T14:15:39;5.60;1.00
6210;DHT22;3138;52.550;13.148;2023-02-28T14:18:23;5.40;1.00
6210;DHT22;3138;52.550;13.148;2023-02-28T14:20:56;5.50;1.00
6210;DHT22;3138;52.550;13.148;2023-02-28T14:27:00;5.40;1.00
6210;DHT22;3138;52.550;13.148;2023-02-28T14:32:32;5.40;1.00
6210;DHT22;3138;52.550;13.148;2023-02-28T14:35:15;5.30;1.00
6210;DHT22;3138;52.550;13.148;2023-02-28T14:37:45;5.40;1.00
6210;DHT22;3138;52.550;13.148;2023-02-28T14:40:16;5.40;1.00
6210;DHT22;3138;52.550;13.148;2023-02-28T14:42:48;5.40;1.00
6210;DHT22;3138;52.550;13.148;2023-02-28T14:45:22;5.40;1.00
6210;DHT22;3138;52.550;13.148;2023-02-28T14:47:50;5.40;1.00
6210;DHT22;3138;52.550;13.148;2023-02-28T14:50:21;5.30;1.00
6210;DHT22;3138;52.550;13.148;2023-02-28T14:52:54;5.20;1.00
6210;DHT22;3138;52.550;13.148;2023-02-28T14:55:26;5.20;1.00
6210;DHT22;3138;52.550;13.148;2023-02-28T14:58:01;5.20;1.00
6210;DHT22;3138;52.550;13.148;2023-02-28T15:00:34;5.20;1.00
6210;DHT22;3138;52.550;13.148;2023-02-28T15:03:20;5.10;1.00
6210;DHT22;3138;52.550;13.148;2023-02-28T15:05:54;5.10;1.00
6210;DHT22;3138;52.550;13.148;2023-02-28T15:08:29;5.00;1.00
6210;DHT22;3138;52.550;13.148;2023-02-28T15:11:04;5.00;1.00
6210;DHT22;3138;52.550;13.148;2023-02-28T15:13:37;5.20;1.00
6210;DHT22;3138;52.550;13.148;2023-02-28T15:16:11;5.20;1.00
6210;DHT22;3138;52.550;13.148;2023-02-28T15:18:47;5.10;1.00
6210;DHT22;3138;52.550;13.148;2023-02-28T15:21:18;5.10;1.00
6210;DHT22;3138;52.550;13.148;2023-02-28T15:23:50;4.90;1.00
6210;DHT22;3138;52.550;13.148;2023-02-28T15:26:23;4.80;1.00
6210;DHT22;3138;52.550;13.148;2023-02-28T15:28:58;4.80;1.00
6210;DHT22;3138;52.550;13.148;2023-02-28T15:31:44;4.70;1.00
6210;DHT22;3138;52.550;13.148;2023-02-28T15:34:19;4.70;1.00
6210;DHT22;3138;52.550;13.148;2023-02-28T15:36:52;4.70;1.00
6210;DHT22;3138;52.550;13.148;2023-02-28T15:39:32;4.60;1.00
6210;DHT22;3138;52.550;13.148;2023-02-28T15:42:23;4.70;1.00
6210;DHT22;3138;52.550;13.148;2023-02-28T15:45:06;4.60;1.00
6210;DHT22;3138;52.550;13.148;2023-02-28T15:47:58;4.60;1.00
6210;DHT22;3138;52.550;13.148;2023-02-28T15:50:28;4.50;1.00
6210;DHT22;3138;52.550;13.148;2023-02-28T15:52:58;4.50;1.00
6210;DHT22;3138;52.550;13.148;2023-02-28T15:55:30;4.50;1.00
6210;DHT22;3138;52.550;13.148;2023-02-28T15:58:04;4.40;1.00
6210;DHT22;3138;52.550;13.148;2023-02-28T16:00:35;4.40;1.00
6210;DHT22;3138;52.550;13.148;2023-02-28T16:03:25;4.40;1.00
6210;DHT22;3138;52.550;13.148;2023-02-28T16:06:22;4.30;1.00
6210;DHT22;3138;52.550;13.148;2023-02-28T16:08:52;4.40;1.00
6210;DHT22;3138;52.550;13.148;2023-02-28T16:11:20;4.40;1.00
6210;DHT22;3138;52.550;13.148;2023-02-28T16:13:52;4.40;1.00
6210;DHT22;3138;52.550;13.148;2023-02-28T16:16:21;4.40;1.00
6210;DHT22;3138;52.550;13.148;2023-02-28T16:18:50;4.30;1.00
6210;DHT22;3138;52.550;13.148;2023-02-28T16:21:17;4.20;1.00
6210;DHT22;3138;52.550;13.148;2023-02-28T16:23:48;4.00;1.00
6210;DHT22;3138;52.550;13.148;2023-02-28T16:26:22;3.90;1.00
6210;DHT22;3138;52.550;13.148;2023-02-28T16:28:51;3.80;1.00
6210;DHT22;3138;52.550;13.148;2023-02-28T16:31:19;3.50;1.00
6210;DHT22;3138;52.550;13.148;2023-02-28T16:33:49;3.40;1.00
6210;DHT22;3138;52.550;13.148;2023-02-28T16:36:20;3.30;1.00
6210;DHT22;3138;52.550;13.148;2023-02-28T16:38:51;3.10;1.00
6210;DHT22;3138;52.550;13.148;2023-02-28T16:41:22;3.00;1.00
6210;DHT22;3138;52.550;13.148;2023-02-28T16:43:53;2.90;1.00
6210;DHT22;3138;52.550;13.148;2023-02-28T16:46:25;2.70;1.00
6210;DHT22;3138;52.550;13.148;2023-02-28T16:48:54;2.60;1.00
6210;DHT22;3138;52.550;13.148;2023-02-28T16:51:22;2.70;1.00
6210;DHT22;3138;52.550;13.148;2023-02-28T16:53:49;2.30;1.00
6210;DHT22;3138;52.550;13.148;2023-02-28T16:56:20;2.20;1.00
6210;DHT22;3138;52.550;13.148;2023-02-28T16:58:48;1.90;1.00
6210;DHT22;3138;52.550;13.148;2023-02-28T17:01:16;1.80;1.00
6210;DHT22;3138;52.550;13.148;2023-02-28T17:03:53;1.50;1.00
6210;DHT22;3138;52.550;13.148;2023-02-28T17:06:33;1.20;1.00
6210;DHT22;3138;52.550;13.148;2023-02-28T17:09:02;1.10;1.00
6210;DHT22;3138;52.550;13.148;2023-02-28T17:11:31;0.90;1.00
6210;DHT22;3138;52.550;13.148;2023-02-28T17:14:03;0.80;1.00
6210;DHT22;3138;52.550;13.148;2023-02-28T17:16:33;0.70;1.00
6210;DHT22;3138;52.550;13.148;2023-02-28T17:19:05;0.50;1.00
6210;DHT22;3138;52.550;13.148;2023-02-28T17:21:36;0.40;1.00
6210;DHT22;3138;52.550;13.148;2023-02-28T17:24:04;0.30;1.00
6210;DHT22;3138;52.550;13.148;2023-02-28T17:26:38;0.10;1.00
6210;DHT22;3138;52.550;13.148;2023-02-28T17:29:11;0.00;1.00
6210;DHT22;3138;52.550;13.148;2023-02-28T17:31:42;-0.20;1.00
6210;DHT22;3138;52.550;13.148;2023-02-28T17:34:33;-0.20;1.00
6210;DHT22;3138;52.550;13.148;2023-02-28T17:37:36;-0.30;1.00
6210;DHT22;3138;52.550;13.148;2023-02-28T17:40:04;-0.40;1.00
6210;DHT22;3138;52.550;13.148;2023-02-28T17:42:32;-0.50;1.00
6210;DHT22;3138;52.550;13.148;2023-02-28T17:44:59;-0.60;1.00
6210;DHT22;3138;52.550;13.148;2023-02-28T17:47:27;-0.60;1.00